Date,TemperatureHighF,TemperatureAvgF,TemperatureLowF,DewpointHighF,DewpointAvgF,DewpointLowF,HumidityHigh,HumidityAvg,HumidityLow,PressureMaxIn,PressureMinIn,WindSpeedMaxMPH,WindSpeedAvgMPH,GustSpeedMaxMPH,PrecipitationSumIn
2013-1-1,48.5,41.9,31.0,20.2,8.0,-3.6,56,27,12,30.24,30.03,12,1,13,0.00
2013-1-2,53.2,39.7,15.9,26.1,18.4,10.6,84,45,25,30.34,30.04,12,1,12,0.00
2013-1-3,28.5,25.8,23.2,25.0,22.4,20.2,91,87,80,30.42,30.26,12,2,12,0.00
2013-1-4,32.9,28.7,22.1,26.6,23.9,17.8,90,82,75,30.45,30.30,6,0,6,0.21
2013-1-5,46.1,18.0,5.0,16.8,8.5,-0.1,83,71,22,30.50,30.30,1,0,10,0.25
2013-1-8,49.6,49.6,49.6,34.6,34.6,34.6,56,56,56,29.83,29.83,0,0,6,0.00
2013-1-29,37.0,35.6,35.2,11.6,9.1,7.2,37,33,29,29.88,29.79,22,10,32,0.00
2013-1-30,45.7,38.8,26.9,17.5,7.4,-0.9,62,28,16,30.22,30.09,21,5,21,0.00
2013-1-31,62.7,49.6,18.9,17.2,10.9,-0.3,64,24,8,30.35,30.05,14,2,17,0.00
2013-2-1,66.3,53.8,18.1,19.9,12.5,8.2,75,21,11,30.36,30.05,21,2,21,0.00
2013-2-23,62.3,55.5,37.8,14.6,8.8,1.8,30,16,9,29.98,29.71,24,5,24,0.00
2013-2-25,46.7,40.9,36.0,10.9,6.5,4.1,27,24,20,30.02,29.91,21,6,26,0.00
2013-2-26,62.1,53.0,31.0,1.9,-5.4,-13.1,21,9,5,29.90,29.69,20,4,21,0.00
2013-2-27,47.9,38.1,19.9,17.1,11.0,-4.8,55,34,18,30.32,30.04,16,4,17,0.00
2013-2-28,54.1,35.7,14.8,12.7,7.3,-0.2,64,34,15,30.41,30.19,16,0,16,0.00
2013-3-1,56.2,38.5,14.3,8.5,2.8,-3.6,54,26,12,30.35,30.25,19,3,20,0.00
2013-3-2,66.8,41.7,15.7,13.9,7.6,0.5,56,29,11,30.55,30.19,14,0,16,0.00
2013-3-3,75.1,49.7,21.4,16.2,5.3,-7.2,54,24,4,30.22,29.76,26,3,26,0.00
2013-3-4,74.0,63.7,35.3,22.5,-4.7,-21.6,22,7,2,29.81,29.50,32,8,34,0.00
2013-3-5,54.2,46.6,31.2,27.2,20.5,15.9,73,36,26,30.34,30.14,17,2,17,0.00
2013-3-6,57.8,47.9,34.7,23.8,21.7,19.9,56,37,25,30.29,30.18,8,0,10,0.00
2013-3-7,52.8,52.6,52.2,18.7,18.0,16.9,26,25,24,29.82,29.80,0,0,0,0.00
2013-3-8,74.0,68.0,53.3,36.4,31.9,27.8,51,27,20,29.86,29.57,28,7,30,0.00
2013-3-9,62.7,58.0,46.4,31.0,24.5,12.2,40,28,20,29.70,29.52,26,7,26,0.00
2013-3-10,47.6,42.1,30.1,19.9,13.0,6.2,53,31,20,30.19,29.96,17,4,20,0.00
2013-3-11,63.1,54.8,21.9,19.1,11.9,4.9,67,19,10,30.29,29.99,19,2,19,0.00
2013-3-12,66.6,56.0,27.5,23.5,16.6,4.1,46,22,10,30.23,30.02,16,3,19,0.00
2013-3-13,70.8,58.2,22.7,23.9,14.8,1.6,72,23,10,30.40,30.14,15,2,18,0.00
2013-3-14,76.0,67.6,25.1,21.9,13.9,8.2,59,13,8,30.48,30.03,14,2,16,0.00
2013-3-15,79.6,75.1,27.5,16.5,10.4,4.7,49,9,6,30.13,29.81,17,2,20,0.00
2013-3-16,79.9,70.7,30.7,16.4,8.1,-6.3,39,10,4,29.88,29.56,22,6,25,0.00
2013-3-17,74.9,71.8,65.2,18.5,9.6,-1.8,15,9,5,29.71,29.48,26,10,28,0.00
2013-3-18,71.8,65.2,46.0,19.9,14.9,7.8,26,14,9,29.83,29.68,21,6,21,0.00
2013-3-19,75.1,69.6,49.4,18.6,13.7,-2.0,24,12,7,29.90,29.70,21,3,21,0.00
2013-3-20,64.3,55.1,0.0,40.1,37.1,0.0,86,52,35,30.37,29.83,16,1,16,0.00
2013-3-21,48.3,44.0,41.9,39.0,36.7,34.7,78,75,70,29.70,29.66,0,0,0,0.00
2013-3-27,74.2,67.4,59.5,28.2,22.5,20.8,27,18,14,29.88,29.78,12,1,12,0.00
2013-3-28,78.3,70.0,41.5,39.1,29.5,23.0,56,24,14,29.97,29.82,15,1,16,0.00
2013-3-29,79.6,69.0,36.8,36.9,24.6,18.0,77,22,11,30.04,29.81,15,1,18,0.00
2013-3-30,80.1,70.3,36.9,24.3,20.1,13.1,57,17,10,29.99,29.71,19,2,21,0.00
2013-3-31,73.5,67.4,52.5,36.2,31.4,21.3,48,27,16,29.84,29.72,20,4,20,0.00
2013-4-1,68.3,62.1,60.4,49.9,46.8,29.2,63,58,25,29.69,29.66,12,0,12,0.00
2013-4-2,71.6,62.2,40.8,47.3,41.7,36.3,85,49,32,29.78,29.66,14,2,14,0.00
2013-4-3,63.7,52.5,40.3,37.8,34.9,30.5,81,53,32,30.07,29.86,13,1,13,0.00
2013-4-4,73.9,63.2,27.9,31.4,24.0,15.8,82,27,11,30.21,29.90,17,3,22,0.00
2013-4-5,79.4,69.7,37.9,31.5,24.9,18.2,57,20,11,30.08,29.69,29,5,29,0.00
2013-4-6,79.0,73.4,42.3,25.5,18.2,6.7,49,13,7,29.81,29.59,22,5,26,0.00
2013-4-7,80.5,79.0,76.0,17.7,14.6,10.5,10,9,8,29.87,29.62,22,8,25,0.00
2013-4-8,80.7,74.8,43.8,24.6,19.4,12.6,33,13,8,29.62,29.23,26,6,26,0.00
2013-4-9,80.3,68.9,55.9,28.9,21.9,11.8,31,18,8,29.51,29.23,31,10,35,0.00
2013-4-10,62.0,52.7,38.8,39.1,27.8,15.0,90,41,16,29.90,29.68,13,1,16,0.05
2013-4-11,65.5,58.4,24.8,29.1,16.8,12.3,78,21,13,29.94,29.66,22,6,24,0.00
2013-4-12,76.8,68.0,31.0,18.1,13.3,7.2,45,13,7,29.86,29.58,20,1,20,0.00
2013-4-13,65.2,58.0,48.0,39.2,36.6,31.3,62,46,28,29.65,29.57,21,5,22,0.01
2013-4-14,77.9,70.3,53.6,18.8,15.0,10.6,20,12,8,29.53,29.44,21,3,22,0.00
2013-4-15,80.9,73.9,60.1,22.0,16.5,12.1,19,12,8,29.64,29.49,24,4,27,0.00
2013-4-16,86.5,75.3,36.0,19.5,10.4,-1.6,37,10,4,29.75,29.50,18,2,20,0.00
2013-4-17,83.4,74.2,47.6,46.6,12.8,-7.7,76,14,3,29.69,29.37,26,5,26,0.00
2013-4-18,64.0,55.5,41.9,30.6,20.2,8.3,62,28,13,30.00,29.71,18,2,18,0.00
2013-4-19,66.0,59.3,31.3,17.0,11.2,2.4,55,16,9,30.23,29.95,17,2,17,0.00
2013-4-20,77.4,69.2,41.9,23.2,8.2,-13.3,34,11,3,29.91,29.63,26,6,26,0.00
2013-4-21,81.1,74.8,54.1,15.6,7.5,-0.7,12,7,5,29.91,29.69,26,2,26,0.00
2013-4-22,85.5,77.5,32.1,12.8,6.6,-0.7,29,7,4,29.93,29.58,21,3,24,0.00
2013-4-23,66.9,58.5,43.9,31.0,27.2,16.7,50,31,21,29.87,29.70,13,2,13,0.00
2013-4-24,65.6,52.6,28.1,37.2,29.9,20.9,76,43,28,30.17,29.98,15,1,15,0.00
2013-4-25,80.5,71.1,31.0,46.5,36.9,22.0,70,31,13,30.11,29.69,21,5,26,0.00
2013-4-26,81.4,73.5,44.2,42.5,16.6,5.4,72,14,7,29.87,29.75,21,5,24,0.00
2013-4-27,77.0,71.5,51.7,37.6,33.5,27.4,48,25,17,29.95,29.74,16,2,17,0.00
2013-4-28,76.5,65.8,40.9,52.5,41.1,24.6,87,44,15,29.88,29.67,20,1,20,0.40
2013-4-29,83.0,70.7,42.1,47.0,32.3,21.5,91,29,11,29.79,29.51,24,1,24,0.00
2013-4-30,85.9,68.4,40.9,41.7,23.1,7.7,79,28,6,29.66,29.42,19,3,22,0.00
2013-5-1,86.5,69.4,42.5,31.6,18.8,11.5,52,18,7,29.73,29.49,21,2,21,0.00
2013-5-2,69.3,43.5,36.6,40.1,28.4,20.3,80,57,24,30.47,29.67,24,7,28,0.00
2013-5-3,65.5,40.6,21.1,23.8,15.0,7.5,78,44,11,30.51,30.00,17,1,17,0.00
2013-5-4,77.7,67.0,35.2,26.4,20.6,11.6,44,17,13,29.96,29.72,16,2,17,0.00
2013-5-5,75.8,59.8,37.2,24.4,20.9,16.5,52,25,12,29.97,29.78,17,1,17,0.00
2013-5-6,79.6,63.3,44.6,32.0,27.2,21.0,52,28,13,29.86,29.66,20,2,22,0.00
2013-5-7,79.6,73.1,41.6,32.7,28.1,22.1,61,19,12,29.83,29.61,22,3,29,0.00
2013-5-8,79.6,73.3,42.9,30.2,23.8,13.4,48,16,9,29.81,29.72,22,7,22,0.00
2013-5-9,79.8,73.8,60.4,30.9,25.0,19.0,25,17,11,29.76,29.59,26,4,34,0.00
2013-5-10,68.8,57.9,48.0,48.9,43.9,24.1,84,61,24,29.98,29.69,17,3,20,0.41
2013-5-11,64.3,59.3,53.5,47.9,44.1,40.0,80,58,44,30.13,30.02,16,3,18,0.03
2013-5-12,68.8,60.2,41.8,44.3,36.5,29.5,86,43,25,30.15,29.97,16,2,18,0.03
2013-5-13,76.0,67.7,35.3,42.8,36.9,30.9,89,34,24,30.16,29.90,20,2,20,0.00
2013-5-14,76.5,66.5,55.0,53.5,42.5,35.4,69,42,27,29.91,29.75,28,4,28,0.08
2013-5-15,83.0,79.0,71.8,36.8,32.9,27.9,24,19,15,29.80,29.56,24,6,26,0.00
2013-5-16,88.4,82.7,68.3,30.8,26.6,18.8,22,13,9,29.65,29.50,22,6,25,0.00
2013-5-17,90.3,82.1,46.2,36.5,23.1,-3.3,59,13,4,29.72,29.52,21,4,21,0.00
2013-5-18,87.2,72.5,47.4,26.6,18.7,4.0,33,14,7,29.67,29.49,25,3,25,0.00
2013-5-19,85.5,73.2,53.3,24.2,17.1,9.2,29,12,7,29.69,29.46,22,4,25,0.00
2013-5-20,87.2,69.2,43.5,25.5,19.1,11.3,39,17,7,29.67,29.47,26,4,27,0.00
2013-5-21,82.6,70.0,-1.1,26.3,19.1,-34.3,34,16,8,29.73,29.49,26,4,28,0.00
2013-5-22,89.7,69.1,40.8,38.4,25.5,16.9,52,23,8,29.73,29.51,25,1,25,0.00
2013-5-23,92.9,74.7,55.4,56.3,48.8,33.4,85,46,16,29.88,29.54,26,4,27,0.44
2013-5-24,82.0,74.2,54.4,59.0,53.6,47.7,92,52,31,29.91,29.67,12,1,14,0.01
2013-5-25,86.5,79.1,57.8,55.6,47.7,38.7,85,36,20,29.80,29.62,17,2,17,0.00
2013-5-26,89.7,83.2,54.7,56.5,44.2,37.1,88,27,16,29.76,29.58,18,2,18,0.11
2013-5-27,92.9,84.4,65.6,58.5,45.1,35.0,73,29,14,29.64,29.41,22,3,22,0.00
2013-5-28,90.5,82.3,62.3,60.1,33.5,16.6,82,23,7,29.50,29.31,19,3,25,0.00
2013-5-29,85.5,79.7,58.0,59.5,24.6,12.9,92,17,7,29.52,29.36,27,7,27,0.00
2013-5-30,87.8,81.7,70.3,35.2,31.4,27.2,26,16,12,29.65,29.46,22,6,26,0.00
2013-5-31,92.7,85.8,46.2,39.5,27.7,20.6,63,13,8,29.70,29.43,24,3,24,0.00
2013-6-1,88.2,83.0,63.9,50.0,31.8,13.9,39,17,8,29.72,29.53,20,6,20,0.00
2013-6-2,84.9,74.4,61.6,58.7,56.4,51.4,78,54,34,29.78,29.60,14,2,19,0.00
2013-6-3,88.8,80.6,55.6,55.2,49.1,42.7,84,36,21,29.76,29.55,19,2,20,0.24
2013-6-4,94.7,87.8,59.9,59.1,39.9,23.4,83,22,10,29.62,29.47,18,3,18,0.00
2013-6-5,92.9,85.9,59.3,53.0,38.1,31.4,68,21,12,29.61,29.44,14,1,17,0.00
2013-6-6,80.9,73.6,54.1,55.0,51.8,47.0,81,47,35,29.70,29.62,18,3,19,0.00
2013-6-7,77.7,63.9,57.3,63.6,55.6,49.6,90,75,45,29.83,29.67,14,0,14,0.08
2013-6-8,90.5,82.1,58.4,54.8,42.5,33.9,77,27,15,29.74,29.44,20,4,20,0.00
2013-6-9,89.0,84.4,68.3,52.1,46.3,41.6,56,27,21,29.63,29.50,19,2,31,0.00
2013-6-10,92.1,82.4,53.1,56.9,44.8,32.5,85,31,14,29.78,29.59,13,1,17,0.00
2013-6-11,92.7,82.9,52.9,58.2,46.5,35.9,88,32,14,29.76,29.58,14,1,14,0.00
2013-6-12,92.3,84.5,75.3,56.8,50.9,41.1,51,33,17,29.65,29.58,14,3,14,0.00
2013-6-13,81.8,70.5,58.6,61.3,57.7,52.9,87,66,39,29.80,29.66,17,1,18,0.02
2013-6-14,79.8,70.7,59.9,62.3,58.5,34.5,89,66,25,29.78,29.65,14,1,14,0.02
2013-6-15,88.4,79.8,54.5,63.4,53.0,43.2,94,43,25,29.80,29.62,11,1,21,0.01
2013-6-16,91.4,81.1,54.8,62.6,53.6,48.2,88,42,25,29.80,29.62,12,0,12,0.13
2013-6-17,89.7,73.3,60.9,64.9,59.2,46.4,90,65,23,29.83,29.64,32,1,35,0.85
2013-6-18,85.7,75.2,56.2,64.7,58.6,53.1,91,59,34,29.89,29.64,18,0,18,0.85
2013-6-19,91.0,80.1,60.1,63.9,58.4,49.9,93,51,25,29.68,29.58,16,1,17,0.00
2013-6-20,87.6,79.3,67.1,60.6,55.4,47.8,77,45,30,29.71,29.62,19,4,20,0.00
2013-6-22,92.1,79.7,73.5,61.6,54.4,46.2,65,45,21,29.66,29.56,10,1,16,0.13
2013-6-23,92.5,84.3,65.8,59.8,51.9,44.9,75,35,21,29.66,29.50,14,1,14,0.13
2013-6-24,91.8,78.9,69.3,62.8,56.3,49.2,73,49,26,29.69,29.55,17,1,19,0.03
2013-6-25,94.7,84.2,68.9,62.8,54.6,45.3,72,39,20,29.70,29.56,12,0,14,0.01
2013-6-26,98.7,90.7,66.9,58.4,40.3,28.3,72,20,11,29.68,29.53,15,2,18,0.01
2013-6-27,97.5,87.8,57.5,58.7,46.1,39.5,82,26,15,29.76,29.62,14,2,14,0.00
2013-6-28,91.8,83.7,50.7,48.1,41.2,31.7,74,24,14,29.87,29.68,17,3,19,0.00
2013-6-29,95.1,86.1,57.6,54.4,43.5,34.7,73,26,14,29.81,29.59,15,2,16,0.00
2013-6-30,85.9,78.8,68.4,52.4,49.2,46.1,52,36,26,29.74,29.62,13,2,16,0.00
2013-7-1,72.0,65.3,61.2,58.2,55.9,51.8,88,72,54,29.97,29.80,16,4,16,0.01
2013-7-2,74.7,66.7,47.4,52.3,48.3,45.2,92,54,38,30.07,29.83,6,0,7,0.01
2013-7-3,81.4,74.7,59.2,48.6,44.8,41.4,66,36,27,29.87,29.66,12,1,12,0.00
2013-7-4,85.7,79.1,55.3,48.8,44.5,41.2,62,31,22,29.76,29.57,11,1,13,0.04
2013-7-5,91.0,80.9,56.9,50.2,46.5,43.5,71,31,21,29.71,29.59,26,1,26,0.00
2013-7-6,94.0,82.1,62.4,52.6,48.6,44.6,65,34,19,29.66,29.47,12,1,16,0.00
2013-7-7,91.8,83.9,55.9,53.0,47.3,42.0,74,29,18,29.70,29.60,17,1,17,0.00
2013-7-8,89.0,79.8,55.0,59.9,53.5,44.9,82,42,23,29.81,29.68,16,2,18,0.00
2013-7-9,88.0,74.6,61.0,59.6,56.5,52.4,81,56,31,29.90,29.71,17,1,17,0.00
2013-7-10,90.1,82.1,61.8,61.2,55.4,49.7,83,42,27,29.84,29.66,14,1,14,0.00
2013-7-11,89.9,77.7,62.1,61.6,54.7,48.2,80,48,27,29.77,29.65,19,3,22,0.18
2013-7-12,92.5,81.9,55.3,62.7,53.3,44.9,93,42,22,29.80,29.62,14,0,14,0.00
2013-7-13,89.5,79.8,57.2,57.0,48.0,39.9,82,37,18,29.77,29.61,17,0,18,0.00
2013-7-14,92.3,85.9,56.5,54.0,42.5,34.9,74,24,15,29.76,29.50,22,0,25,0.00
2013-7-15,64.8,62.1,58.3,59.3,56.5,53.0,88,82,73,29.90,29.64,12,2,14,0.00
2013-7-16,64.0,61.4,58.3,56.5,55.1,52.5,87,80,70,29.97,29.90,12,1,12,0.04
2013-7-17,67.1,63.6,61.2,63.2,61.3,59.8,95,92,84,30.02,29.92,13,1,17,1.47
2013-7-18,71.8,67.2,62.1,63.1,60.3,58.3,94,79,67,29.94,29.84,12,2,14,0.07
2013-7-19,66.8,64.5,63.1,62.8,61.2,60.0,91,89,86,29.86,29.74,0,0,0,0.00
2013-7-20,76.8,69.0,62.7,62.7,60.4,57.0,93,75,53,29.79,29.68,14,2,14,0.13
2013-7-21,80.1,72.6,60.5,61.5,59.1,55.8,93,64,46,29.78,29.62,14,0,15,0.13
2013-7-22,84.9,72.4,59.9,65.8,61.8,54.6,92,72,36,29.74,29.64,10,0,18,0.37
2013-7-23,84.0,75.9,63.4,64.4,62.1,58.7,91,64,44,29.77,29.65,12,2,14,0.00
2013-7-24,86.1,76.0,60.9,64.7,60.7,53.8,92,61,36,29.76,29.68,10,0,13,0.00
2013-7-25,85.7,77.8,56.9,63.2,56.7,47.7,92,51,28,29.87,29.75,8,0,8,0.00
2013-7-26,84.7,73.5,58.4,64.1,60.5,55.2,89,67,41,29.92,29.78,21,2,28,0.07
2013-7-27,79.4,72.0,66.0,64.5,61.7,57.3,87,71,51,29.92,29.73,7,0,12,0.05
2013-7-28,83.0,72.9,59.3,64.5,61.3,57.2,94,69,45,29.75,29.65,18,1,18,0.69
2013-7-29,83.8,74.6,63.9,65.2,61.9,58.3,91,67,48,29.81,29.70,18,1,22,0.51
2013-7-30,87.8,78.9,65.3,65.1,61.0,55.9,85,56,37,29.89,29.79,11,0,12,0.00
2013-7-31,86.7,75.1,59.0,61.5,58.2,53.2,91,58,35,29.93,29.75,0,0,0,0.00
2013-8-1,86.5,79.2,56.6,62.3,50.0,41.3,92,40,21,29.92,29.74,13,1,15,0.00
2013-8-2,89.3,80.8,54.5,58.6,51.4,43.3,86,39,22,29.82,29.64,11,1,12,0.00
2013-8-3,92.3,83.7,58.9,62.1,50.7,42.3,85,35,18,29.81,29.62,11,0,11,0.00
2013-8-4,90.7,82.8,59.3,60.7,54.6,48.0,86,40,25,29.80,29.62,10,0,11,0.00
2013-8-5,92.1,81.3,60.4,61.5,54.8,44.8,85,43,21,29.77,29.63,12,0,17,0.00
2013-8-6,89.7,78.4,59.2,60.3,56.9,50.2,87,49,27,29.76,29.64,14,1,17,0.00
2013-8-7,83.6,76.2,66.3,59.8,56.6,52.6,68,51,40,29.81,29.64,17,2,17,0.00
2013-8-8,89.3,81.5,68.9,56.2,50.4,44.3,62,35,22,29.73,29.57,12,1,12,0.00
2013-8-9,86.7,79.6,55.6,59.3,54.4,49.0,86,43,31,29.80,29.71,12,0,15,0.00
2013-8-10,82.4,75.2,61.6,63.7,57.3,52.8,78,55,40,29.92,29.79,16,1,16,0.01
2013-8-11,84.5,77.9,57.6,62.1,55.3,46.7,93,47,28,29.93,29.76,14,1,17,0.00
2013-8-12,87.4,78.9,55.6,62.0,56.3,50.6,93,49,30,29.87,29.75,11,0,12,0.00
2013-8-13,89.3,82.0,54.5,61.4,54.2,45.3,92,41,23,29.83,29.65,13,2,17,0.00
2013-8-14,84.0,77.9,58.0,62.5,58.0,53.7,89,52,37,29.84,29.70,18,4,22,0.00
2013-8-15,88.8,80.6,57.5,60.1,52.5,46.7,89,39,27,29.86,29.73,12,1,17,0.00
2013-8-16,89.0,82.5,59.8,56.3,48.1,0.0,76,32,21,29.87,29.73,17,1,18,0.00
2013-8-17,88.8,81.5,60.4,59.7,50.3,39.8,88,37,20,29.94,29.71,12,0,14,0.31
2013-8-18,87.0,71.7,55.7,61.5,54.9,46.5,89,58,29,29.93,29.80,27,2,31,0.18
2013-8-19,87.8,79.6,50.5,59.8,48.4,34.9,95,37,18,29.93,29.74,8,0,12,0.01
2013-8-20,86.7,75.2,53.8,60.1,51.7,44.9,90,49,24,29.86,29.75,19,1,21,0.10
2013-8-21,84.0,74.8,50.1,58.4,45.9,36.7,95,40,19,29.96,29.78,17,1,17,0.01
2013-8-27,73.2,70.3,66.1,60.7,58.5,56.8,82,67,59,29.85,29.78,1,0,11,0.01
2013-8-28,83.4,75.9,64.3,62.1,58.8,55.4,84,57,42,29.88,29.73,12,1,12,0.00
2013-8-29,86.7,78.2,55.6,62.2,55.8,50.6,93,49,31,29.92,29.78,10,0,12,0.00
2013-8-30,89.0,79.2,51.9,59.1,48.2,36.4,91,38,17,29.92,29.72,19,1,19,0.00
2013-8-31,92.3,81.1,50.8,56.4,47.2,38.2,89,35,16,29.86,29.63,11,0,13,0.00
2013-9-1,91.6,84.5,53.1,57.8,48.6,43.2,86,31,20,29.77,29.62,19,1,19,0.00
2013-9-2,85.1,76.8,52.0,57.6,53.4,48.6,89,46,30,29.84,29.70,16,2,19,0.00
2013-9-3,84.9,74.5,52.5,63.8,55.9,48.2,94,57,30,29.89,29.74,19,2,27,0.39
2013-9-4,85.5,78.1,52.9,60.1,51.6,45.3,93,43,26,29.96,29.78,16,1,19,0.01
2013-9-5,81.8,77.2,73.2,55.1,52.5,49.8,53,43,34,29.87,29.81,11,1,13,0.00
2013-9-6,84.7,75.1,51.7,59.4,53.7,48.8,92,50,30,29.95,29.76,12,1,16,0.00
2013-9-7,83.6,78.2,51.7,56.6,53.2,47.5,92,42,30,29.90,29.70,12,0,12,0.00
2013-9-8,83.0,71.1,51.6,61.5,56.7,49.1,94,63,36,29.83,29.68,17,1,18,0.02
2013-9-9,77.6,68.5,60.2,62.5,58.4,0.0,95,72,49,29.80,29.69,14,2,17,0.06
2013-9-10,76.0,69.3,59.6,64.3,61.1,56.0,92,76,55,29.81,29.69,8,0,8,0.16
2013-9-11,78.5,71.0,64.0,65.3,61.7,57.8,94,73,54,29.85,29.70,11,0,13,0.01
2013-9-12,77.2,71.0,62.3,62.1,58.7,52.7,92,66,47,29.84,29.72,12,1,14,0.01
2013-9-13,81.2,72.4,50.7,62.1,51.7,47.1,96,52,32,29.85,29.67,11,1,16,0.00
2013-9-14,81.1,73.7,46.5,56.0,50.6,42.7,95,46,32,29.81,29.67,12,1,17,0.00
2013-9-15,81.6,74.4,52.2,58.5,54.1,48.0,93,51,35,29.82,29.72,12,1,14,0.00
2013-9-16,78.3,71.0,53.6,60.1,56.2,51.6,94,61,44,29.93,29.81,13,1,14,0.01
2013-9-17,76.5,69.3,60.7,59.9,57.1,53.9,93,67,48,29.90,29.73,16,2,17,0.01
2013-9-18,79.8,71.6,62.0,61.7,58.4,55.2,87,64,44,29.79,29.60,16,2,19,0.00
2013-9-19,64.8,62.2,61.0,61.0,59.8,58.4,95,92,87,29.72,29.69,2,0,8,0.63
2013-9-20,70.8,63.6,58.9,62.5,59.1,56.3,93,86,67,29.85,29.73,11,1,13,0.16
2013-9-21,73.3,65.6,56.6,55.8,52.7,49.9,87,64,45,29.93,29.74,11,0,11,0.01
2013-9-22,77.2,69.9,44.6,57.8,48.2,40.1,97,49,29,29.84,29.62,14,1,15,0.01
2013-9-23,82.2,75.1,59.8,55.6,47.5,38.9,75,39,23,29.70,29.56,13,3,18,0.01
2013-9-24,81.2,70.8,43.8,44.3,37.0,28.7,78,33,16,29.97,29.79,14,1,14,0.00
2013-9-25,86.3,76.9,39.2,49.1,41.3,35.0,92,32,17,29.94,29.56,15,1,15,0.00
2013-9-26,87.6,78.7,47.4,54.3,46.3,40.4,90,35,21,29.74,29.50,12,1,12,0.00
2013-9-27,85.9,77.8,59.8,57.2,54.0,49.3,78,45,30,29.62,29.43,19,4,21,0.00
2013-9-28,74.4,67.3,53.3,45.2,33.0,19.0,67,29,18,29.98,29.70,13,4,16,0.00
2013-9-29,79.4,70.1,38.6,51.2,39.0,32.4,95,36,20,30.22,29.83,14,2,16,0.00
2013-9-30,82.0,68.3,40.2,42.2,34.1,28.1,75,32,15,29.95,29.69,16,3,16,0.00
2013-10-1,84.9,77.8,42.5,39.9,28.4,21.8,70,19,11,29.87,29.69,21,6,21,0.00
2013-10-2,85.7,74.6,37.6,39.3,35.3,28.6,76,27,15,29.92,29.65,16,2,19,0.00
2013-10-3,87.0,77.9,50.7,50.2,44.9,41.7,75,33,22,29.80,29.52,22,2,26,0.00
2013-10-4,87.0,77.7,50.2,53.4,35.3,26.4,87,25,12,29.73,29.56,17,2,17,0.00
2013-10-5,69.3,59.9,41.2,33.9,28.5,18.0,57,31,22,30.07,29.77,14,2,14,0.00
2013-10-6,71.1,50.3,29.1,31.8,24.2,19.4,82,43,15,30.24,30.05,14,0,14,0.00
2013-10-7,77.6,49.6,26.4,25.9,18.6,11.3,73,39,8,30.33,29.98,8,0,19,0.00
2013-10-8,82.8,57.8,31.0,34.8,26.1,14.6,100,34,12,30.12,29.68,17,2,17,0.00
2013-10-9,84.5,64.3,40.2,39.5,32.3,23.3,71,36,11,29.86,29.65,19,1,19,0.00
2013-10-10,83.8,76.8,53.2,46.4,34.7,25.5,69,24,14,29.73,29.53,21,7,29,0.00
2013-10-11,79.6,69.0,43.8,39.5,32.7,26.3,66,28,17,29.95,29.61,19,2,20,0.00
2013-10-12,80.3,70.3,38.8,47.6,42.8,31.9,80,39,27,29.99,29.80,14,1,16,0.00
2013-10-13,74.9,68.8,56.9,57.3,55.6,50.8,84,63,51,29.92,29.80,11,1,16,0.00
2013-10-14,73.3,65.7,60.1,58.1,54.2,47.5,86,67,40,29.86,29.74,14,0,17,0.00
2013-10-15,58.6,55.3,49.9,55.5,53.3,48.8,96,93,87,29.91,29.81,0,0,0,0.50
2013-10-16,70.6,57.5,47.9,56.6,50.6,47.1,97,80,46,30.02,29.80,12,1,13,0.00
2013-10-17,73.2,59.4,45.8,50.3,47.8,45.0,97,66,37,29.98,29.73,2,0,7,0.00
2013-10-18,75.3,63.7,39.2,52.1,27.8,12.6,96,33,11,30.00,29.74,17,3,30,0.01
2013-10-19,71.5,58.4,41.1,46.0,38.6,31.0,86,52,25,30.15,29.88,8,0,12,0.00
2013-10-20,74.4,63.3,33.5,51.3,32.5,21.3,96,38,14,29.98,29.73,18,2,19,0.00
2013-10-21,67.6,56.7,32.5,37.5,34.2,24.3,76,44,27,30.10,29.93,13,2,24,0.00
2013-10-22,70.3,58.4,29.5,46.4,33.5,27.5,95,45,22,30.27,30.02,6,0,7,0.00
2013-10-23,74.2,60.7,28.4,39.5,29.9,24.1,91,36,16,30.23,29.95,11,0,19,0.00
2013-10-24,77.6,66.1,32.8,38.6,34.7,28.8,89,35,21,30.20,29.91,14,1,15,0.00
2013-10-25,68.3,59.5,37.8,41.9,38.6,31.0,87,48,28,30.18,30.00,12,1,12,0.00
2013-10-26,74.6,61.7,38.9,52.1,45.0,35.9,95,57,36,30.12,29.94,13,1,14,0.00
2013-10-27,74.9,64.9,36.2,46.8,41.7,33.8,94,46,27,30.15,29.80,11,1,16,0.00
2013-10-28,76.5,67.2,46.8,52.1,37.1,22.9,83,38,15,29.88,29.72,18,3,20,0.00
2013-10-29,76.5,67.5,41.1,43.5,33.8,22.9,74,31,14,30.00,29.76,13,0,14,0.00
2013-10-30,69.3,64.0,58.1,51.2,45.2,36.1,76,52,33,29.82,29.64,26,6,26,0.01
2013-10-31,66.3,60.7,51.4,33.5,26.5,20.2,48,28,18,29.85,29.72,22,6,24,0.00
2013-11-1,66.3,59.4,41.3,27.8,16.6,9.6,40,20,13,30.07,29.78,29,7,29,0.00
2013-11-2,67.6,55.0,23.8,28.9,20.3,10.9,78,31,12,30.38,30.07,12,1,12,0.00
2013-11-3,55.7,51.9,48.5,48.3,42.7,20.4,92,72,50,30.09,29.76,20,3,21,0.00
2013-11-4,66.4,58.3,48.3,53.7,49.3,46.4,94,73,53,29.83,29.68,18,4,19,0.00
2013-11-5,69.8,59.5,44.5,51.6,41.2,28.1,94,54,30,29.92,29.69,12,2,13,0.00
2013-11-6,53.3,43.5,28.2,30.6,23.4,17.6,65,47,31,30.35,30.15,12,2,12,0.00
2013-11-7,61.3,51.6,25.7,25.5,13.7,2.7,72,24,10,30.55,30.19,11,0,11,0.00
2013-11-8,54.4,47.5,40.3,45.4,42.6,34.6,93,83,67,30.17,29.95,12,2,12,0.01
2013-11-9,72.7,61.8,25.3,42.4,32.0,23.3,96,36,20,30.19,29.74,18,3,18,0.01
2013-11-10,73.9,65.7,27.9,36.2,33.4,24.5,88,32,21,30.28,30.04,8,0,10,0.02
2013-11-11,75.6,60.5,33.2,47.2,41.3,30.0,91,52,31,30.24,29.98,11,1,12,0.00
2013-11-12,50.4,38.8,33.8,46.1,33.5,0.0,91,82,71,30.61,30.30,17,3,20,0.00
2013-11-13,57.5,46.9,35.9,40.4,36.3,-25.9,95,69,5,30.52,30.20,13,0,14,0.00
2013-11-14,67.6,56.1,42.2,43.9,41.5,12.4,86,61,20,30.03,29.76,19,4,25,0.00
2013-11-15,69.9,62.4,28.8,50.2,40.5,26.8,96,47,27,30.00,29.63,18,4,21,0.01
2013-11-16,73.3,66.8,55.3,47.7,44.6,40.6,68,46,33,29.67,29.57,27,8,27,0.02
2013-11-17,69.1,61.4,46.7,37.2,32.6,28.5,56,35,25,29.93,29.71,26,4,26,0.00
2013-11-18,68.8,55.8,38.3,38.5,34.4,29.5,73,47,29,30.11,29.91,9,0,9,0.00
2013-11-19,73.9,63.7,32.5,42.8,38.9,27.9,87,42,27,30.10,29.70,22,2,22,0.00
2013-11-20,75.6,61.9,40.2,54.2,34.2,20.4,96,41,14,29.85,29.60,16,1,17,0.00
2013-11-21,73.5,60.7,32.4,43.1,32.9,25.5,79,39,17,30.05,29.83,7,0,8,0.00
2013-11-22,30.0,25.9,24.1,26.6,23.1,21.1,91,89,83,30.50,30.20,9,2,10,0.00
2013-11-23,28.5,27.4,25.1,25.4,24.3,22.9,91,88,85,30.57,30.47,11,2,11,0.00
2013-11-26,47.0,39.9,13.8,22.2,19.8,10.1,85,45,31,30.57,30.21,8,0,8,0.00
2013-11-27,63.1,49.9,27.8,30.0,25.8,0.0,86,42,23,30.38,30.09,10,1,12,0.00
2013-11-28,66.1,56.3,33.7,35.5,32.0,28.3,90,42,27,30.41,30.17,10,0,13,0.00
2013-11-29,73.2,60.9,43.8,39.3,34.3,29.6,76,40,21,30.22,29.92,14,1,14,0.00
2013-11-30,73.0,61.6,32.4,37.7,30.8,24.9,82,35,17,30.21,29.92,10,0,12,0.00
2013-12-1,68.4,64.1,54.5,23.3,16.7,8.2,28,17,10,29.81,29.62,27,11,29,0.00
2013-12-2,66.4,59.2,53.6,20.0,13.6,5.4,20,16,13,29.71,29.64,21,8,26,0.00
2013-12-3,69.8,62.8,53.5,36.2,31.4,23.7,50,32,19,29.64,29.49,24,4,25,0.00
2013-12-4,71.5,63.3,51.6,41.3,35.1,30.4,58,36,23,29.66,29.48,27,5,27,0.00
2013-12-5,48.2,36.0,31.0,44.2,33.9,29.5,94,92,75,29.95,29.66,0,0,0,0.40
2013-12-6,36.5,32.4,27.8,36.3,31.0,26.6,100,95,90,30.27,30.12,0,0,0,0.05
2013-12-7,35.3,28.6,22.4,32.9,26.7,19.9,95,92,90,30.33,30.07,0,0,0,0.06
2013-12-8,61.5,51.6,30.9,26.1,19.8,11.0,73,32,14,29.94,29.77,22,4,22,0.00
2013-12-9,61.2,49.5,19.4,33.8,20.0,7.1,91,38,12,30.29,29.94,18,2,20,0.00
2013-12-10,53.2,44.0,16.9,30.5,18.7,8.3,90,41,18,30.46,30.19,12,1,13,0.00
2013-12-11,49.1,41.0,31.6,33.5,21.3,15.2,83,48,27,30.50,30.26,11,0,11,0.00
2013-12-12,57.8,47.4,26.6,35.4,28.7,21.6,84,50,33,30.49,30.05,7,0,7,0.00
2013-12-13,56.9,46.9,30.0,41.8,31.1,24.0,92,56,31,30.05,29.82,28,5,30,0.00
2013-12-14,48.2,39.2,23.5,29.3,17.6,13.9,73,43,27,30.41,30.05,14,3,14,0.00
2013-12-15,59.6,46.8,12.1,26.7,13.5,4.9,88,31,12,30.56,30.20,16,3,17,0.00
2013-12-16,66.0,50.8,18.1,25.3,16.8,10.6,80,30,12,30.44,30.11,14,2,14,0.00
2013-12-17,68.1,52.2,21.9,24.0,19.1,14.9,78,33,13,30.41,30.10,7,0,7,0.00
2013-12-18,68.4,55.8,18.8,29.7,18.1,10.7,88,27,11,30.36,29.80,19,3,19,0.00
2013-12-19,70.6,62.4,43.8,35.2,29.7,21.4,48,30,22,29.79,29.53,21,6,31,0.00
2013-12-20,56.2,50.7,46.2,49.8,46.1,41.9,91,84,73,29.71,29.50,40,7,40,0.85
2013-12-21,36.5,36.0,35.6,25.8,23.2,21.9,66,59,56,29.60,29.59,21,6,21,0.05
2013-12-27,50.1,36.2,25.4,25.6,23.4,20.3,81,62,38,30.44,30.29,7,0,8,0.05
2013-12-28,54.1,45.8,16.7,38.5,30.3,13.2,93,56,38,30.35,29.84,21,4,21,0.00
2013-12-29,44.3,37.1,28.8,25.3,22.5,19.1,70,56,43,30.21,29.95,20,3,20,0.00
2013-12-30,57.8,45.6,15.7,27.6,19.4,11.9,90,39,19,30.41,30.16,18,4,19,0.00
2013-12-31,57.3,44.5,15.7,26.3,20.2,12.0,89,42,21,30.51,30.17,18,3,20,0.00
2014-1-1,64.7,56.7,43.5,26.7,18.9,11.5,49,24,13,30.09,29.84,19,4,20,0.00
2014-1-2,55.0,41.8,18.1,27.5,19.8,14.4,89,46,24,30.45,30.19,11,1,11,0.00